sensor_id;sensor_type;location;lat;lon;timestamp;temperature;humidity
13982;DHT22;7065;50.880;5.502;2022-11-12T00:00:43;3.90;99.90
13982;DHT22;7065;50.880;5.502;2022-11-12T00:03:09;3.90;99.90
13982;DHT22;7065;50.880;5.502;2022-11-12T00:05:36;3.80;99.90
13982;DHT22;7065;50.880;5.502;2022-11-12T00:08:02;3.80;99.90
13982;DHT22;7065;50.880;5.502;2022-11-12T00:10:28;3.70;99.90
13982;DHT22;7065;50.880;5.502;2022-11-12T00:12:54;3.70;99.90
13982;DHT22;7065;50.880;5.502;2022-11-12T00:15:20;3.70;99.90
13982;DHT22;7065;50.880;5.502;2022-11-12T00:17:45;3.70;99.90
13982;DHT22;7065;50.880;5.502;2022-11-12T00:20:11;3.70;99.90
13982;DHT22;7065;50.880;5.502;2022-11-12T00:22:38;3.70;99.90
13982;DHT22;7065;50.880;5.502;2022-11-12T00:25:04;3.70;99.90
13982;DHT22;7065;50.880;5.502;2022-11-12T00:27:33;3.70;99.90
13982;DHT22;7065;50.880;5.502;2022-11-12T00:29:58;3.70;99.90
13982;DHT22;7065;50.880;5.502;2022-11-12T00:32:24;3.70;99.90
13982;DHT22;7065;50.880;5.502;2022-11-12T00:34:50;3.70;99.90
13982;DHT22;7065;50.880;5.502;2022-11-12T00:37:16;3.70;99.90
13982;DHT22;7065;50.880;5.502;2022-11-12T00:39:43;3.70;99.90
13982;DHT22;7065;50.880;5.502;2022-11-12T00:42:09;3.70;99.90
13982;DHT22;7065;50.880;5.502;2022-11-12T00:44:34;3.70;99.90
13982;DHT22;7065;50.880;5.502;2022-11-12T00:47:00;3.70;99.90
13982;DHT22;7065;50.880;5.502;2022-11-12T00:49:26;3.70;99.90
13982;DHT22;7065;50.880;5.502;2022-11-12T00:51:51;3.60;99.90
13982;DHT22;7065;50.880;5.502;2022-11-12T00:54:17;3.60;99.90
13982;DHT22;7065;50.880;5.502;2022-11-12T00:56:45;3.60;99.90
13982;DHT22;7065;50.880;5.502;2022-11-12T00:59:12;3.60;99.90
13982;DHT22;7065;50.880;5.502;2022-11-12T01:01:37;3.60;99.90
13982;DHT22;7065;50.880;5.502;2022-11-12T01:04:04;3.50;99.90
13982;DHT22;7065;50.880;5.502;2022-11-12T01:06:30;3.50;99.90
13982;DHT22;7065;50.880;5.502;2022-11-12T01:08:56;3.50;99.90
13982;DHT22;7065;50.880;5.502;2022-11-12T01:11:24;3.40;99.90
13982;DHT22;7065;50.880;5.502;2022-11-12T01:14:02;3.40;99.90
13982;DHT22;7065;50.880;5.502;2022-11-12T01:16:30;3.50;99.90
13982;DHT22;7065;50.880;5.502;2022-11-12T01:18:58;3.50;99.90
13982;DHT22;7065;50.880;5.502;2022-11-12T01:21:27;3.50;99.90
13982;DHT22;7065;50.880;5.502;2022-11-12T01:23:55;3.50;99.90
13982;DHT22;7065;50.880;5.502;2022-11-12T01:26:22;3.50;99.90
13982;DHT22;7065;50.880;5.502;2022-11-12T01:28:48;3.60;99.90
13982;DHT22;7065;50.880;5.502;2022-11-12T01:31:22;3.60;99.90
13982;DHT22;7065;50.880;5.502;2022-11-12T01:33:52;3.60;99.90
13982;DHT22;7065;50.880;5.502;2022-11-12T01:36:19;3.60;99.90
13982;DHT22;7065;50.880;5.502;2022-11-12T01:38:46;3.60;99.90
13982;DHT22;7065;50.880;5.502;2022-11-12T01:41:17;3.70;99.90
13982;DHT22;7065;50.880;5.502;2022-11-12T01:43:44;3.70;99.90
13982;DHT22;7065;50.880;5.502;2022-11-12T01:46:27;3.70;99.90
13982;DHT22;7065;50.880;5.502;2022-11-12T01:48:58;3.70;99.90
13982;DHT22;7065;50.880;5.502;2022-11-12T01:51:29;3.70;99.90
13982;DHT22;7065;50.880;5.502;2022-11-12T01:54:00;3.70;99.90
13982;DHT22;7065;50.880;5.502;2022-11-12T01:56:29;3.60;99.90
13982;DHT22;7065;50.880;5.502;2022-11-12T01:59:01;3.70;99.90
13982;DHT22;7065;50.880;5.502;2022-11-12T02:01:29;3.70;99.90
13982;DHT22;7065;50.880;5.502;2022-11-12T02:03:55;3.70;99.90
13982;DHT22;7065;50.880;5.502;2022-11-12T02:06:22;3.70;99.90
13982;DHT22;7065;50.880;5.502;2022-11-12T02:08:49;3.60;99.90
13982;DHT22;7065;50.880;5.502;2022-11-12T02:11:17;3.60;99.90
13982;DHT22;7065;50.880;5.502;2022-11-12T02:13:45;3.60;99.90
13982;DHT22;7065;50.880;5.502;2022-11-12T02:16:37;3.60;99.90
13982;DHT22;7065;50.880;5.502;2022-11-12T02:19:07;3.60;99.90
13982;DHT22;7065;50.880;5.502;2022-11-12T02:21:33;3.50;99.90
13982;DHT22;7065;50.880;5.502;2022-11-12T02:24:04;3.50;99.90
13982;DHT22;7065;50.880;5.502;2022-11-12T02:26:36;3.50;99.90
13982;DHT22;7065;50.880;5.502;2022-11-12T02:29:03;3.40;99.90
13982;DHT22;7065;50.880;5.502;2022-11-12T02:31:29;3.40;99.90
13982;DHT22;7065;50.880;5.502;2022-11-12T02:33:55;3.40;99.90
13982;DHT22;7065;50.880;5.502;2022-11-12T02:36:20;3.40;99.90
13982;DHT22;7065;50.880;5.502;2022-11-12T02:38:46;3.40;99.90
13982;DHT22;7065;50.880;5.502;2022-11-12T02:41:12;3.40;99.90
13982;DHT22;7065;50.880;5.502;2022-11-12T02:43:39;3.40;99.90
13982;DHT22;7065;50.880;5.502;2022-11-12T02:46:06;3.40;99.90
13982;DHT22;7065;50.880;5.502;2022-11-12T02:48:31;3.40;99.90
13982;DHT22;7065;50.880;5.502;2022-11-12T02:50:57;3.40;99.90
13982;DHT22;7065;50.880;5.502;2022-11-12T02:53:23;3.40;99.90
13982;DHT22;7065;50.880;5.502;2022-11-12T02:55:49;3.40;99.90
13982;DHT22;7065;50.880;5.502;2022-11-12T02:58:15;3.40;99.90
13982;DHT22;7065;50.880;5.502;2022-11-12T03:00:41;3.40;99.90
13982;DHT22;7065;50.880;5.502;2022-11-12T03:03:07;3.40;99.90
13982;DHT22;7065;50.880;5.502;2022-11-12T03:05:34;3.40;99.90
13982;DHT22;7065;50.880;5.502;2022-11-12T03:08:02;3.40;99.90
13982;DHT22;7065;50.880;5.502;2022-11-12T03:10:29;3.30;99.90
13982;DHT22;7065;50.880;5.502;2022-11-12T03:12:56;3.30;99.90
13982;DHT22;7065;50.880;5.502;2022-11-12T03:15:22;3.30;99.90
13982;DHT22;7065;50.880;5.502;2022-11-12T03:17:48;3.20;99.90
13982;DHT22;7065;50.880;5.502;2022-11-12T03:20:14;3.20;99.90
13982;DHT22;7065;50.880;5.502;2022-11-12T03:22:40;3.20;99.90
13982;DHT22;7065;50.880;5.502;2022-11-12T03:25:08;3.30;99.90
13982;DHT22;7065;50.880;5.502;2022-11-12T03:27:34;3.30;99.90
13982;DHT22;7065;50.880;5.502;2022-11-12T03:30:00;3.30;99.90
13982;DHT22;7065;50.880;5.502;2022-11-12T03:32:25;3.30;99.90
13982;DHT22;7065;50.880;5.502;2022-11-12T03:34:51;3.30;99.90
13982;DHT22;7065;50.880;5.502;2022-11-12T03:37:17;3.30;99.90
13982;DHT22;7065;50.880;5.502;2022-11-12T03:39:42;3.20;99.90
13982;DHT22;7065;50.880;5.502;2022-11-12T03:42:08;3.30;99.90
13982;DHT22;7065;50.880;5.502;2022-11-12T03:44:34;3.30;99.90
13982;DHT22;7065;50.880;5.502;2022-11-12T03:47:00;3.30;99.90
13982;DHT22;7065;50.880;5.502;2022-11-12T03:49:26;3.30;99.90
13982;DHT22;7065;50.880;5.502;2022-11-12T03:51:51;3.30;99.90
13982;DHT22;7065;50.880;5.502;2022-11-12T03:54:17;3.20;99.90
13982;DHT22;7065;50.880;5.502;2022-11-12T03:56:44;3.20;99.90
13982;DHT22;7065;50.880;5.502;2022-11-12T03:59:10;3.20;99.90
13982;DHT22;7065;50.880;5.502;2022-11-12T04:01:36;3.20;99.90
13982;DHT22;7065;50.880;5.502;2022-11-12T04:04:02;3.10;99.90
13982;DHT22;7065;50.880;5.502;2022-11-12T04:06:28;3.10;99.90
13982;DHT22;7065;50.880;5.502;2022-11-12T04:09:12;3.10;99.90
13982;DHT22;7065;50.880;5.502;2022-11-12T04:11:38;3.10;99.90
13982;DHT22;7065;50.880;5.502;2022-11-12T04:14:04;3.10;99.90
13982;DHT22;7065;50.880;5.502;2022-11-12T04:16:31;3.10;99.90
13982;DHT22;7065;50.880;5.502;2022-11-12T04:19:15;3.10;99.90
13982;DHT22;7065;50.880;5.502;2022-11-12T04:22:05;3.10;99.90
13982;DHT22;7065;50.880;5.502;2022-11-12T04:24:40;3.10;99.90
13982;DHT22;7065;50.880;5.502;2022-11-12T04:27:30;3.00;99.90
13982;DHT22;7065;50.880;5.502;2022-11-12T04:29:56;3.00;99.90
13982;DHT22;7065;50.880;5.502;2022-11-12T04:32:50;3.00;99.90
13982;DHT22;7065;50.880;5.502;2022-11-12T04:35:17;3.00;99.90
13982;DHT22;7065;50.880;5.502;2022-11-12T04:37:43;3.00;99.90
13982;DHT22;7065;50.880;5.502;2022-11-12T04:40:18;3.10;99.90
13982;DHT22;7065;50.880;5.502;2022-11-12T04:43:03;3.10;99.90
13982;DHT22;7065;50.880;5.502;2022-11-12T04:45:51;3.00;99.90
13982;DHT22;7065;50.880;5.502;2022-11-12T04:48:17;3.00;99.90
13982;DHT22;7065;50.880;5.502;2022-11-12T04:50:46;3.00;99.90
13982;DHT22;7065;50.880;5.502;2022-11-12T04:53:12;3.10;99.90
13982;DHT22;7065;50.880;5.502;2022-11-12T04:55:38;3.00;99.90
13982;DHT22;7065;50.880;5.502;2022-11-12T04:58:04;3.00;99.90
13982;DHT22;7065;50.880;5.502;2022-11-12T05:00:30;3.00;99.90
13982;DHT22;7065;50.880;5.502;2022-11-12T05:02:56;3.00;99.90
13982;DHT22;7065;50.880;5.502;2022-11-12T05:05:22;3.00;99.90
13982;DHT22;7065;50.880;5.502;2022-11-12T05:07:48;3.00;99.90
13982;DHT22;7065;50.880;5.502;2022-11-12T05:10:15;3.00;99.90
13982;DHT22;7065;50.880;5.502;2022-11-12T05:12:42;3.00;99.90
13982;DHT22;7065;50.880;5.502;2022-11-12T05:15:08;2.90;99.90
13982;DHT22;7065;50.880;5.502;2022-11-12T05:17:34;2.90;99.90
13982;DHT22;7065;50.880;5.502;2022-11-12T05:20:00;2.90;99.90
13982;DHT22;7065;50.880;5.502;2022-11-12T05:22:25;2.90;99.90
13982;DHT22;7065;50.880;5.502;2022-11-12T05:24:52;3.00;99.90
13982;DHT22;7065;50.880;5.502;2022-11-12T05:27:19;3.00;99.90
13982;DHT22;7065;50.880;5.502;2022-11-12T05:29:46;3.00;99.90
13982;DHT22;7065;50.880;5.502;2022-11-12T05:32:14;3.00;99.90
13982;DHT22;7065;50.880;5.502;2022-11-12T05:34:41;3.00;99.90
13982;DHT22;7065;50.880;5.502;2022-11-12T05:37:08;3.00;99.90
13982;DHT22;7065;50.880;5.502;2022-11-12T05:39:34;3.00;99.90
13982;DHT22;7065;50.880;5.502;2022-11-12T05:41:59;3.00;99.90
13982;DHT22;7065;50.880;5.502;2022-11-12T05:44:26;3.00;99.90
13982;DHT22;7065;50.880;5.502;2022-11-12T05:46:52;3.00;99.90
13982;DHT22;7065;50.880;5.502;2022-11-12T05:49:17;3.00;99.90
13982;DHT22;7065;50.880;5.502;2022-11-12T05:51:43;3.00;99.90
13982;DHT22;7065;50.880;5.502;2022-11-12T05:54:10;3.00;99.90
13982;DHT22;7065;50.880;5.502;2022-11-12T05:56:36;3.00;99.90
13982;DHT22;7065;50.880;5.502;2022-11-12T05:59:04;3.00;99.90
13982;DHT22;7065;50.880;5.502;2022-11-12T06:01:31;3.00;99.90
13982;DHT22;7065;50.880;5.502;2022-11-12T06:03:57;3.00;99.90
13982;DHT22;7065;50.880;5.502;2022-11-12T06:06:24;3.10;99.90
13982;DHT22;7065;50.880;5.502;2022-11-12T06:08:49;3.10;99.90
13982;DHT22;7065;50.880;5.502;2022-11-12T06:11:16;3.10;99.90
13982;DHT22;7065;50.880;5.502;2022-11-12T06:13:42;3.10;99.90
13982;DHT22;7065;50.880;5.502;2022-11-12T06:16:11;3.10;99.90
13982;DHT22;7065;50.880;5.502;2022-11-12T06:18:37;3.10;99.90
13982;DHT22;7065;50.880;5.502;2022-11-12T06:21:04;3.10;99.90
13982;DHT22;7065;50.880;5.502;2022-11-12T06:23:56;3.10;99.90
13982;DHT22;7065;50.880;5.502;2022-11-12T06:26:24;3.10;99.90
13982;DHT22;7065;50.880;5.502;2022-11-12T06:28:50;3.10;99.90
13982;DHT22;7065;50.880;5.502;2022-11-12T06:31:16;3.10;99.90
13982;DHT22;7065;50.880;5.502;2022-11-12T06:33:43;3.10;99.90
13982;DHT22;7065;50.880;5.502;2022-11-12T06:36:11;3.10;99.90
13982;DHT22;7065;50.880;5.502;2022-11-12T06:38:38;3.10;99.90
13982;DHT22;7065;50.880;5.502;2022-11-12T06:41:05;3.10;99.90
13982;DHT22;7065;50.880;5.502;2022-11-12T06:43:32;3.00;99.90
13982;DHT22;7065;50.880;5.502;2022-11-12T06:46:03;3.00;99.90
13982;DHT22;7065;50.880;5.502;2022-11-12T06:48:30;3.00;99.90
13982;DHT22;7065;50.880;5.502;2022-11-12T06:50:56;3.10;99.90
13982;DHT22;7065;50.880;5.502;2022-11-12T06:53:23;3.00;99.90
13982;DHT22;7065;50.880;5.502;2022-11-12T06:55:49;3.10;99.90
13982;DHT22;7065;50.880;5.502;2022-11-12T06:58:15;3.10;99.90
13982;DHT22;7065;50.880;5.502;2022-11-12T07:00:40;3.10;99.90
13982;DHT22;7065;50.880;5.502;2022-11-12T07:03:07;3.10;99.90
13982;DHT22;7065;50.880;5.502;2022-11-12T07:05:37;3.10;99.90
13982;DHT22;7065;50.880;5.502;2022-11-12T07:08:04;3.10;99.90
13982;DHT22;7065;50.880;5.502;2022-11-12T07:10:30;3.20;99.90
13982;DHT22;7065;50.880;5.502;2022-11-12T07:12:55;3.20;99.90
13982;DHT22;7065;50.880;5.502;2022-11-12T07:15:21;3.20;99.90
13982;DHT22;7065;50.880;5.502;2022-11-12T07:17:47;3.20;99.90
13982;DHT22;7065;50.880;5.502;2022-11-12T07:20:12;3.30;99.90
13982;DHT22;7065;50.880;5.502;2022-11-12T07:22:38;3.30;99.90
13982;DHT22;7065;50.880;5.502;2022-11-12T07:25:05;3.30;99.90
13982;DHT22;7065;50.880;5.502;2022-11-12T07:27:31;3.40;99.90
13982;DHT22;7065;50.880;5.502;2022-11-12T07:29:56;3.40;99.90
13982;DHT22;7065;50.880;5.502;2022-11-12T07:32:22;3.40;99.90
13982;DHT22;7065;50.880;5.502;2022-11-12T07:34:48;3.50;99.90
13982;DHT22;7065;50.880;5.502;2022-11-12T07:37:14;3.50;99.90
13982;DHT22;7065;50.880;5.502;2022-11-12T07:39:40;3.50;99.90
13982;DHT22;7065;50.880;5.502;2022-11-12T07:42:06;3.50;99.90
13982;DHT22;7065;50.880;5.502;2022-11-12T07:44:32;3.60;99.90
13982;DHT22;7065;50.880;5.502;2022-11-12T07:46:58;3.60;99.90
13982;DHT22;7065;50.880;5.502;2022-11-12T07:49:23;3.60;99.90
13982;DHT22;7065;50.880;5.502;2022-11-12T07:51:49;3.70;99.90
13982;DHT22;7065;50.880;5.502;2022-11-12T07:54:14;3.70;99.90
13982;DHT22;7065;50.880;5.502;2022-11-12T07:56:40;3.80;99.90
13982;DHT22;7065;50.880;5.502;2022-11-12T07:59:06;3.90;99.90
13982;DHT22;7065;50.880;5.502;2022-11-12T08:01:35;3.90;99.90
13982;DHT22;7065;50.880;5.502;2022-11-12T08:04:04;4.00;99.90
13982;DHT22;7065;50.880;5.502;2022-11-12T08:06:31;4.00;99.90
13982;DHT22;7065;50.880;5.502;2022-11-12T08:08:59;4.10;99.90
13982;DHT22;7065;50.880;5.502;2022-11-12T08:11:25;4.20;99.90
13982;DHT22;7065;50.880;5.502;2022-11-12T08:13:51;4.40;99.90
13982;DHT22;7065;50.880;5.502;2022-11-12T08:16:17;4.50;99.90
13982;DHT22;7065;50.880;5.502;2022-11-12T08:18:43;4.60;99.90
13982;DHT22;7065;50.880;5.502;2022-11-12T08:21:12;4.70;99.90
13982;DHT22;7065;50.880;5.502;2022-11-12T08:23:38;4.80;99.90
13982;DHT22;7065;50.880;5.502;2022-11-12T08:26:06;4.90;99.90
13982;DHT22;7065;50.880;5.502;2022-11-12T08:28:34;4.90;99.90
13982;DHT22;7065;50.880;5.502;2022-11-12T08:31:05;5.00;99.90
13982;DHT22;7065;50.880;5.502;2022-11-12T08:33:31;5.10;99.90
13982;DHT22;7065;50.880;5.502;2022-11-12T08:35:57;5.20;99.90
13982;DHT22;7065;50.880;5.502;2022-11-12T08:38:23;5.30;99.90
13982;DHT22;7065;50.880;5.502;2022-11-12T08:40:49;5.40;99.90
13982;DHT22;7065;50.880;5.502;2022-11-12T08:43:14;5.40;99.90
13982;DHT22;7065;50.880;5.502;2022-11-12T08:45:41;5.50;99.90
13982;DHT22;7065;50.880;5.502;2022-11-12T08:48:09;5.60;99.90
13982;DHT22;7065;50.880;5.502;2022-11-12T08:50:36;5.60;99.90
13982;DHT22;7065;50.880;5.502;2022-11-12T08:53:04;5.70;99.90
13982;DHT22;7065;50.880;5.502;2022-11-12T08:55:30;5.70;99.90
13982;DHT22;7065;50.880;5.502;2022-11-12T08:57:56;5.80;99.90
13982;DHT22;7065;50.880;5.502;2022-11-12T09:00:29;5.90;99.90
13982;DHT22;7065;50.880;5.502;2022-11-12T09:02:58;6.00;99.90
13982;DHT22;7065;50.880;5.502;2022-11-12T09:05:24;6.10;99.90
13982;DHT22;7065;50.880;5.502;2022-11-12T09:07:59;6.10;99.90
13982;DHT22;7065;50.880;5.502;2022-11-12T09:10:26;6.20;99.90
13982;DHT22;7065;50.880;5.502;2022-11-12T09:12:52;6.30;99.90
13982;DHT22;7065;50.880;5.502;2022-11-12T09:15:19;6.40;99.90
13982;DHT22;7065;50.880;5.502;2022-11-12T09:17:45;6.50;99.90
13982;DHT22;7065;50.880;5.502;2022-11-12T09:20:10;6.50;99.90
13982;DHT22;7065;50.880;5.502;2022-11-12T09:22:36;6.60;99.90
13982;DHT22;7065;50.880;5.502;2022-11-12T09:25:02;6.70;99.90
13982;DHT22;7065;50.880;5.502;2022-11-12T09:27:29;6.80;99.90
13982;DHT22;7065;50.880;5.502;2022-11-12T09:29:54;6.90;99.90
13982;DHT22;7065;50.880;5.502;2022-11-12T09:32:20;6.90;99.90
13982;DHT22;7065;50.880;5.502;2022-11-12T09:34:46;7.00;99.90
13982;DHT22;7065;50.880;5.502;2022-11-12T09:37:11;7.10;99.90
13982;DHT22;7065;50.880;5.502;2022-11-12T09:39:37;7.20;99.90
13982;DHT22;7065;50.880;5.502;2022-11-12T09:42:07;7.30;99.90
13982;DHT22;7065;50.880;5.502;2022-11-12T09:44:36;7.30;99.90
13982;DHT22;7065;50.880;5.502;2022-11-12T09:47:11;7.40;99.90
13982;DHT22;7065;50.880;5.502;2022-11-12T09:50:29;7.50;99.90
13982;DHT22;7065;50.880;5.502;2022-11-12T09:52:36;7.60;99.90
13982;DHT22;7065;50.880;5.502;2022-11-12T09:55:20;7.80;99.90
13982;DHT22;7065;50.880;5.502;2022-11-12T09:57:46;7.90;99.90
13982;DHT22;7065;50.880;5.502;2022-11-12T10:00:19;8.00;99.90
13982;DHT22;7065;50.880;5.502;2022-11-12T10:03:23;8.10;99.90
13982;DHT22;7065;50.880;5.502;2022-11-12T10:05:57;8.20;99.90
13982;DHT22;7065;50.880;5.502;2022-11-12T10:11:41;8.50;99.90
13982;DHT22;7065;50.880;5.502;2022-11-12T10:23:44;9.10;99.90
13982;DHT22;7065;50.880;5.502;2022-11-12T10:26:13;9.20;99.90
13982;DHT22;7065;50.880;5.502;2022-11-12T10:28:49;9.40;99.90
13982;DHT22;7065;50.880;5.502;2022-11-12T10:31:19;9.50;99.90
13982;DHT22;7065;50.880;5.502;2022-11-12T10:33:45;9.60;99.90
13982;DHT22;7065;50.880;5.502;2022-11-12T10:36:30;9.70;99.90
13982;DHT22;7065;50.880;5.502;2022-11-12T10:38:58;9.80;99.90
13982;DHT22;7065;50.880;5.502;2022-11-12T10:41:30;9.90;99.90
13982;DHT22;7065;50.880;5.502;2022-11-12T10:44:04;10.10;99.90
13982;DHT22;7065;50.880;5.502;2022-11-12T10:46:36;10.20;99.90
13982;DHT22;7065;50.880;5.502;2022-11-12T10:51:40;10.40;99.90
13982;DHT22;7065;50.880;5.502;2022-11-12T10:54:36;10.50;99.90
13982;DHT22;7065;50.880;5.502;2022-11-12T10:57:24;10.70;99.90
13982;DHT22;7065;50.880;5.502;2022-11-12T11:02:50;10.80;99.90
13982;DHT22;7065;50.880;5.502;2022-11-12T11:05:37;10.90;99.90
13982;DHT22;7065;50.880;5.502;2022-11-12T11:08:13;10.90;99.90
13982;DHT22;7065;50.880;5.502;2022-11-12T11:10:38;11.00;99.90
13982;DHT22;7065;50.880;5.502;2022-11-12T11:13:12;11.10;99.90
13982;DHT22;7065;50.880;5.502;2022-11-12T11:15:57;11.20;99.90
13982;DHT22;7065;50.880;5.502;2022-11-12T11:18:24;11.20;99.90
13982;DHT22;7065;50.880;5.502;2022-11-12T11:24:28;11.60;99.90
13982;DHT22;7065;50.880;5.502;2022-11-12T11:27:08;11.70;99.90
13982;DHT22;7065;50.880;5.502;2022-11-12T11:41:25;12.40;99.90
13982;DHT22;7065;50.880;5.502;2022-11-12T11:57:28;12.40;99.90
13982;DHT22;7065;50.880;5.502;2022-11-12T12:00:16;12.40;99.90
13982;DHT22;7065;50.880;5.502;2022-11-12T12:08:07;12.50;99.90
13982;DHT22;7065;50.880;5.502;2022-11-12T12:13:26;12.60;99.90
13982;DHT22;7065;50.880;5.502;2022-11-12T12:21:16;12.80;99.90
13982;DHT22;7065;50.880;5.502;2022-11-12T12:26:15;13.10;99.90
13982;DHT22;7065;50.880;5.502;2022-11-12T12:31:40;13.20;99.90
13982;DHT22;7065;50.880;5.502;2022-11-12T12:36:53;13.40;99.90
13982;DHT22;7065;50.880;5.502;2022-11-12T12:42:13;13.50;99.90
13982;DHT22;7065;50.880;5.502;2022-11-12T12:45:23;13.60;99.90
13982;DHT22;7065;50.880;5.502;2022-11-12T12:47:45;13.60;99.90
13982;DHT22;7065;50.880;5.502;2022-11-12T12:50:13;13.70;99.90
13982;DHT22;7065;50.880;5.502;2022-11-12T12:52:59;13.80;99.90
13982;DHT22;7065;50.880;5.502;2022-11-12T12:55:42;14.00;99.90
13982;DHT22;7065;50.880;5.502;2022-11-12T12:58:44;14.00;99.90
13982;DHT22;7065;50.880;5.502;2022-11-12T13:01:12;14.10;99.90
13982;DHT22;7065;50.880;5.502;2022-11-12T13:04:04;14.20;99.90
13982;DHT22;7065;50.880;5.502;2022-11-12T13:17:04;14.50;99.90
13982;DHT22;7065;50.880;5.502;2022-11-12T13:32:54;14.70;99.90
13982;DHT22;7065;50.880;5.502;2022-11-12T13:35:29;14.70;99.90
13982;DHT22;7065;50.880;5.502;2022-11-12T13:43:33;14.80;99.90
13982;DHT22;7065;50.880;5.502;2022-11-12T13:48:55;14.70;99.90
13982;DHT22;7065;50.880;5.502;2022-11-12T13:53:57;14.70;99.90
13982;DHT22;7065;50.880;5.502;2022-11-12T13:56:30;14.70;99.90
13982;DHT22;7065;50.880;5.502;2022-11-12T13:59:17;14.80;99.90
13982;DHT22;7065;50.880;5.502;2022-11-12T14:01:44;14.80;99.90
13982;DHT22;7065;50.880;5.502;2022-11-12T14:04:13;14.80;99.90
13982;DHT22;7065;50.880;5.502;2022-11-12T14:09:19;14.80;99.90
13982;DHT22;7065;50.880;5.502;2022-11-12T14:17:48;14.70;99.90
13982;DHT22;7065;50.880;5.502;2022-11-12T14:20:27;14.70;99.90
13982;DHT22;7065;50.880;5.502;2022-11-12T14:22:55;14.70;99.90
13982;DHT22;7065;50.880;5.502;2022-11-12T14:25:26;14.60;99.90
13982;DHT22;7065;50.880;5.502;2022-11-12T14:27:55;14.60;99.90
13982;DHT22;7065;50.880;5.502;2022-11-12T14:30:28;14.60;99.90
13982;DHT22;7065;50.880;5.502;2022-11-12T14:33:07;14.60;99.90
13982;DHT22;7065;50.880;5.502;2022-11-12T14:35:35;14.50;99.90
13982;DHT22;7065;50.880;5.502;2022-11-12T14:38:26;14.50;99.90
13982;DHT22;7065;50.880;5.502;2022-11-12T14:41:02;14.40;99.90
13982;DHT22;7065;50.880;5.502;2022-11-12T14:43:42;14.30;99.90
13982;DHT22;7065;50.880;5.502;2022-11-12T14:47:03;14.10;99.90
13982;DHT22;7065;50.880;5.502;2022-11-12T14:51:54;13.80;99.90
13982;DHT22;7065;50.880;5.502;2022-11-12T14:56:54;13.60;99.90
13982;DHT22;7065;50.880;5.502;2022-11-12T14:59:20;13.40;99.90
13982;DHT22;7065;50.880;5.502;2022-11-12T15:04:40;13.20;99.90
13982;DHT22;7065;50.880;5.502;2022-11-12T15:07:25;13.10;99.90
13982;DHT22;7065;50.880;5.502;2022-11-12T15:09:51;12.90;99.90
13982;DHT22;7065;50.880;5.502;2022-11-12T15:12:24;12.80;99.90
13982;DHT22;7065;50.880;5.502;2022-11-12T15:14:53;12.70;99.90
13982;DHT22;7065;50.880;5.502;2022-11-12T15:17:30;12.70;99.90
13982;DHT22;7065;50.880;5.502;2022-11-12T15:20:15;12.60;99.90
13982;DHT22;7065;50.880;5.502;2022-11-12T15:22:49;12.50;99.90
13982;DHT22;7065;50.880;5.502;2022-11-12T15:25:17;12.40;99.90
13982;DHT22;7065;50.880;5.502;2022-11-12T15:27:45;12.30;99.90
13982;DHT22;7065;50.880;5.502;2022-11-12T15:30:23;12.30;99.90
13982;DHT22;7065;50.880;5.502;2022-11-12T15:35:37;12.20;99.90
13982;DHT22;7065;50.880;5.502;2022-11-12T15:38:32;12.10;99.90
13982;DHT22;7065;50.880;5.502;2022-11-12T15:40:57;12.10;99.90
13982;DHT22;7065;50.880;5.502;2022-11-12T15:43:31;12.00;99.90
13982;DHT22;7065;50.880;5.502;2022-11-12T15:45:59;12.00;99.90
13982;DHT22;7065;50.880;5.502;2022-11-12T15:48:25;11.90;99.90
13982;DHT22;7065;50.880;5.502;2022-11-12T15:50:51;11.80;99.90
13982;DHT22;7065;50.880;5.502;2022-11-12T15:53:17;11.70;99.90
13982;DHT22;7065;50.880;5.502;2022-11-12T15:55:43;11.60;99.90
13982;DHT22;7065;50.880;5.502;2022-11-12T15:58:27;11.60;99.90
13982;DHT22;7065;50.880;5.502;2022-11-12T16:00:54;11.50;99.90
13982;DHT22;7065;50.880;5.502;2022-11-12T16:03:21;11.40;99.90
13982;DHT22;7065;50.880;5.502;2022-11-12T16:05:47;11.40;99.90
13982;DHT22;7065;50.880;5.502;2022-11-12T16:08:13;11.30;99.90
13982;DHT22;7065;50.880;5.502;2022-11-12T16:10:40;11.30;99.90
13982;DHT22;7065;50.880;5.502;2022-11-12T16:13:13;11.20;99.90
13982;DHT22;7065;50.880;5.502;2022-11-12T16:15:39;11.10;99.90
13982;DHT22;7065;50.880;5.502;2022-11-12T16:18:04;11.10;99.90
13982;DHT22;7065;50.880;5.502;2022-11-12T16:20:32;11.00;99.90
13982;DHT22;7065;50.880;5.502;2022-11-12T16:22:59;10.80;99.90
13982;DHT22;7065;50.880;5.502;2022-11-12T16:25:32;10.70;99.90
13982;DHT22;7065;50.880;5.502;2022-11-12T16:28:00;10.50;99.90
13982;DHT22;7065;50.880;5.502;2022-11-12T16:30:31;10.30;99.90
13982;DHT22;7065;50.880;5.502;2022-11-12T16:32:58;10.20;99.90
13982;DHT22;7065;50.880;5.502;2022-11-12T16:35:25;10.10;99.90
13982;DHT22;7065;50.880;5.502;2022-11-12T16:37:53;10.00;99.90
13982;DHT22;7065;50.880;5.502;2022-11-12T16:40:21;10.00;99.90
13982;DHT22;7065;50.880;5.502;2022-11-12T16:42:47;10.00;99.90
13982;DHT22;7065;50.880;5.502;2022-11-12T16:45:16;10.00;99.90
13982;DHT22;7065;50.880;5.502;2022-11-12T16:47:44;9.90;99.90
13982;DHT22;7065;50.880;5.502;2022-11-12T16:50:12;9.90;99.90
13982;DHT22;7065;50.880;5.502;2022-11-12T16:52:38;9.90;99.90
13982;DHT22;7065;50.880;5.502;2022-11-12T16:55:04;9.90;99.90
13982;DHT22;7065;50.880;5.502;2022-11-12T16:57:30;9.80;99.90
13982;DHT22;7065;50.880;5.502;2022-11-12T16:59:56;9.80;99.90
13982;DHT22;7065;50.880;5.502;2022-11-12T17:02:21;9.70;99.90
13982;DHT22;7065;50.880;5.502;2022-11-12T17:04:47;9.70;99.90
13982;DHT22;7065;50.880;5.502;2022-11-12T17:07:13;9.60;99.90
13982;DHT22;7065;50.880;5.502;2022-11-12T17:09:38;9.50;99.90
13982;DHT22;7065;50.880;5.502;2022-11-12T17:12:04;9.40;99.90
13982;DHT22;7065;50.880;5.502;2022-11-12T17:14:30;9.30;99.90
13982;DHT22;7065;50.880;5.502;2022-11-12T17:16:55;9.30;99.90
13982;DHT22;7065;50.880;5.502;2022-11-12T17:19:21;9.30;99.90
13982;DHT22;7065;50.880;5.502;2022-11-12T17:21:47;9.20;99.90
13982;DHT22;7065;50.880;5.502;2022-11-12T17:24:13;9.20;99.90
13982;DHT22;7065;50.880;5.502;2022-11-12T17:26:39;9.10;99.90
13982;DHT22;7065;50.880;5.502;2022-11-12T17:29:05;9.10;99.90
13982;DHT22;7065;50.880;5.502;2022-11-12T17:31:30;9.10;99.90
13982;DHT22;7065;50.880;5.502;2022-11-12T17:33:56;9.10;99.90
13982;DHT22;7065;50.880;5.502;2022-11-12T17:36:24;9.10;99.90
13982;DHT22;7065;50.880;5.502;2022-11-12T17:38:57;9.10;99.90
13982;DHT22;7065;50.880;5.502;2022-11-12T17:41:25;9.10;99.90
13982;DHT22;7065;50.880;5.502;2022-11-12T17:43:57;9.10;99.90
13982;DHT22;7065;50.880;5.502;2022-11-12T17:46:22;9.20;99.90
13982;DHT22;7065;50.880;5.502;2022-11-12T17:48:48;9.20;99.90
13982;DHT22;7065;50.880;5.502;2022-11-12T17:51:19;9.20;99.90
13982;DHT22;7065;50.880;5.502;2022-11-12T17:53:45;9.20;99.90
13982;DHT22;7065;50.880;5.502;2022-11-12T17:56:13;9.20;99.90
13982;DHT22;7065;50.880;5.502;2022-11-12T17:58:38;9.20;99.90
13982;DHT22;7065;50.880;5.502;2022-11-12T18:01:12;9.10;99.90
13982;DHT22;7065;50.880;5.502;2022-11-12T18:03:43;9.10;99.90
13982;DHT22;7065;50.880;5.502;2022-11-12T18:06:32;9.10;99.90
13982;DHT22;7065;50.880;5.502;2022-11-12T18:09:12;9.10;99.90
13982;DHT22;7065;50.880;5.502;2022-11-12T18:11:44;9.10;99.90
13982;DHT22;7065;50.880;5.502;2022-11-12T18:14:11;9.10;99.90
13982;DHT22;7065;50.880;5.502;2022-11-12T18:16:37;9.00;99.90